Time;durP1;ratioP1;P1;durP2;ratioP2;P2;SDS_P1;SDS_P2;PMS_P1;PMS_P2;Temp;Humidity;BMP_temperature;BMP_pressure;BME280_temperature;BME280_humidity;BME280_pressure;Samples;Min_cycle;Max_cycle;Signal;HPM_P1;HPM_P2
2024/01/11 00:00:48;;;;;;;7.07;4.22;;;-4.60;99.90;;;;;;5030282;28;20026;-82
2024/01/11 00:03:15;;;;;;;6.85;3.90;;;-4.60;99.90;;;;;;5032118;28;20044;-82
2024/01/11 00:05:41;;;;;;;5.85;3.78;;;-4.60;99.90;;;;;;5032189;28;20028;-80
2024/01/11 00:08:07;;;;;;;5.90;3.42;;;-4.60;99.90;;;;;;5032988;28;20109;-82
2024/01/11 00:10:33;;;;;;;7.60;5.55;;;-4.60;99.90;;;;;;5035720;28;20083;-81
2024/01/11 00:12:59;;;;;;;7.13;3.92;;;-4.50;99.90;;;;;;5032171;28;20021;-82
2024/01/11 00:15:25;;;;;;;5.90;3.60;;;-4.50;99.90;;;;;;5029679;28;20029;-82
2024/01/11 00:17:51;;;;;;;6.18;4.65;;;-4.40;99.90;;;;;;5029213;28;20033;-81
2024/01/11 00:20:16;;;;;;;7.32;5.65;;;-4.40;99.90;;;;;;5030171;28;20029;-81
2024/01/11 00:22:42;;;;;;;7.68;4.05;;;-4.30;99.90;;;;;;5031612;28;20060;-83
2024/01/11 00:25:08;;;;;;;9.15;4.05;;;-4.30;99.90;;;;;;5013880;28;20017;-81
2024/01/11 00:27:34;;;;;;;6.65;3.72;;;-4.30;99.90;;;;;;5034043;28;20360;-82
2024/01/11 00:30:00;;;;;;;6.55;3.85;;;-4.20;99.90;;;;;;5018079;28;20026;-80
2024/01/11 00:32:26;;;;;;;5.75;3.92;;;-4.20;99.90;;;;;;5037934;28;20029;-80
2024/01/11 00:34:52;;;;;;;6.13;3.70;;;-4.20;99.90;;;;;;5035899;28;20453;-81
2024/01/11 00:37:18;;;;;;;6.30;3.75;;;-4.10;99.90;;;;;;5035735;28;20117;-83
2024/01/11 00:39:44;;;;;;;8.63;3.70;;;-4.10;99.90;;;;;;5035327;28;20473;-80
2024/01/11 00:42:10;;;;;;;10.10;3.90;;;-4.10;99.90;;;;;;5035071;28;20027;-82
2024/01/11 00:44:36;;;;;;;6.50;3.42;;;-4.00;99.90;;;;;;5037407;28;20032;-84
2024/01/11 00:47:02;;;;;;;6.78;3.42;;;-4.00;99.90;;;;;;5036744;28;20029;-82
2024/01/11 00:49:27;;;;;;;5.38;3.33;;;-3.90;99.90;;;;;;5036931;28;20022;-82
2024/01/11 00:51:53;;;;;;;5.68;3.25;;;-3.90;99.90;;;;;;5036523;28;20044;-82
2024/01/11 00:54:19;;;;;;;8.65;4.25;;;-3.80;99.90;;;;;;5032267;28;20009;-82
2024/01/11 00:56:45;;;;;;;5.93;3.70;;;-3.80;99.90;;;;;;5041387;28;20073;-82
2024/01/11 00:59:11;;;;;;;4.32;3.10;;;-3.80;99.90;;;;;;5038701;28;20479;-82
2024/01/11 01:01:37;;;;;;;5.50;3.45;;;-3.80;99.90;;;;;;5032235;28;20029;-83
2024/01/11 01:04:03;;;;;;;5.63;3.08;;;-3.70;99.90;;;;;;5035575;28;20033;-81
2024/01/11 01:06:29;;;;;;;4.47;3.25;;;-3.70;99.90;;;;;;5035624;28;20025;-81
2024/01/11 01:08:55;;;;;;;6.50;3.20;;;-3.70;99.90;;;;;;5034527;28;20093;-82
2024/01/11 01:11:21;;;;;;;4.28;3.10;;;-3.60;99.90;;;;;;5035714;28;20378;-81
2024/01/11 01:13:47;;;;;;;4.22;3.00;;;-3.60;99.90;;;;;;5028495;28;20034;-81
2024/01/11 01:16:14;;;;;;;4.60;3.08;;;-3.50;99.90;;;;;;5031887;28;20033;-81
2024/01/11 01:18:39;;;;;;;4.45;2.92;;;-3.50;99.90;;;;;;5034506;28;20108;-81
2024/01/11 01:21:06;;;;;;;6.03;3.13;;;-3.50;99.90;;;;;;5017357;28;20163;-81
2024/01/11 01:23:32;;;;;;;6.88;3.42;;;-3.40;99.90;;;;;;5043637;28;20029;-82
2024/01/11 01:25:58;;;;;;;3.95;3.20;;;-3.40;99.90;;;;;;5019016;28;20040;-80
2024/01/11 01:28:24;;;;;;;5.63;3.28;;;-3.30;99.90;;;;;;5034659;28;20024;-82
2024/01/11 01:30:50;;;;;;;6.65;3.38;;;-3.30;99.90;;;;;;5016862;28;20108;-83
2024/01/11 01:33:16;;;;;;;5.00;2.60;;;-3.30;99.90;;;;;;5034297;28;20100;-81
2024/01/11 01:35:42;;;;;;;5.18;2.78;;;-3.20;99.90;;;;;;5034135;28;20413;-81
2024/01/11 01:38:07;;;;;;;3.83;2.83;;;-3.20;99.90;;;;;;5034729;28;20483;-81
2024/01/11 01:40:33;;;;;;;5.38;2.47;;;-3.20;99.90;;;;;;5042057;28;20433;-81
2024/01/11 01:43:00;;;;;;;4.75;3.20;;;-3.10;99.90;;;;;;5032878;28;20064;-82
2024/01/11 01:45:26;;;;;;;3.20;2.25;;;-3.10;99.90;;;;;;5034288;28;20364;-83
2024/01/11 01:47:53;;;;;;;5.50;3.30;;;-3.10;99.90;;;;;;5033825;28;20441;-82
2024/01/11 01:50:20;;;;;;;3.90;2.50;;;-3.00;99.90;;;;;;5033616;28;20033;-81
2024/01/11 01:52:46;;;;;;;;;;;-3.00;99.90;;;;;;5034182;28;20029;-80
2024/01/11 01:55:15;;;;;;;6.05;3.20;;;-2.90;99.90;;;;;;5034051;28;19955;-80
2024/01/11 01:57:42;;;;;;;5.18;2.75;;;-2.90;99.90;;;;;;5033595;28;20422;-81
2024/01/11 02:00:12;;;;;;;3.97;2.22;;;-2.90;99.90;;;;;;5031532;28;20033;-80
2024/01/11 02:02:45;;;;;;;4.88;2.70;;;-2.80;99.90;;;;;;5033659;28;20031;-82
2024/01/11 02:05:13;;;;;;;4.07;2.10;;;-2.80;99.90;;;;;;5046901;28;20096;-83
2024/01/11 02:07:40;;;;;;;3.20;2.15;;;-2.70;99.90;;;;;;5033791;28;20483;-81
2024/01/11 02:10:07;;;;;;;3.97;2.23;;;-2.70;99.90;;;;;;5033563;28;20021;-82
2024/01/11 02:12:37;;;;;;;3.08;1.85;;;-2.60;99.90;;;;;;5034131;28;20040;-82
2024/01/11 02:15:03;;;;;;;4.75;2.70;;;-2.60;99.90;;;;;;5028249;28;20118;-82
2024/01/11 02:17:31;;;;;;;4.05;3.05;;;-2.50;99.90;;;;;;5039266;28;20482;-82
2024/01/11 02:19:57;;;;;;;4.43;3.05;;;-2.50;99.90;;;;;;5033711;28;20017;-82
2024/01/11 02:22:29;;;;;;;2.95;2.42;;;-2.40;99.90;;;;;;5025629;28;20045;-81
2024/01/11 02:24:57;;;;;;;2.92;2.05;;;-2.40;99.90;;;;;;5031024;28;20018;-80
2024/01/11 02:27:23;;;;;;;2.50;2.03;;;-2.30;99.90;;;;;;5033319;28;20151;-80
2024/01/11 02:29:49;;;;;;;4.85;2.10;;;-2.30;99.90;;;;;;5030327;28;20481;-80
2024/01/11 02:32:15;;;;;;;3.05;1.85;;;-2.20;99.90;;;;;;5033323;28;20026;-81
2024/01/11 02:34:42;;;;;;;4.68;1.85;;;-2.20;99.90;;;;;;5032900;28;20017;-80
2024/01/11 02:37:08;;;;;;;3.20;1.98;;;-2.10;99.90;;;;;;5033073;28;20033;-81
2024/01/11 02:39:34;;;;;;;3.60;2.10;;;-2.10;99.90;;;;;;5032896;28;20025;-80
2024/01/11 02:42:01;;;;;;;3.20;1.90;;;-2.00;99.90;;;;;;5016096;28;20040;-81
2024/01/11 02:44:27;;;;;;;3.22;1.80;;;-2.00;99.90;;;;;;5033126;28;20037;-81
2024/01/11 02:46:52;;;;;;;3.42;2.17;;;-1.90;99.90;;;;;;5013976;28;20033;-78
2024/01/11 02:49:18;;;;;;;4.93;2.15;;;-1.90;99.90;;;;;;5030993;28;20509;-79
2024/01/11 02:51:44;;;;;;;4.35;2.13;;;-1.90;99.90;;;;;;5032470;28;20095;-80
2024/01/11 02:54:10;;;;;;;3.42;2.05;;;-1.80;99.90;;;;;;5032661;28;20390;-80
2024/01/11 02:56:36;;;;;;;4.93;2.88;;;-1.70;99.90;;;;;;5032552;28;20028;-80
2024/01/11 02:59:02;;;;;;;2.88;2.08;;;-1.70;99.90;;;;;;5032512;28;20018;-80
2024/01/11 03:01:28;;;;;;;3.22;1.65;;;-1.70;99.90;;;;;;5032326;28;20068;-80
2024/01/11 03:03:55;;;;;;;2.10;1.42;;;-1.60;99.90;;;;;;5032804;28;20017;-80
2024/01/11 03:06:22;;;;;;;3.45;1.80;;;-1.50;99.90;;;;;;5033389;28;20025;-80
2024/01/11 03:08:50;;;;;;;2.70;1.90;;;-1.50;99.90;;;;;;5034532;28;20406;-80
2024/01/11 03:11:16;;;;;;;3.90;1.90;;;-1.40;99.90;;;;;;5033787;28;20443;-79
2024/01/11 03:13:42;;;;;;;4.57;1.55;;;-1.40;99.90;;;;;;5026679;28;20037;-80
2024/01/11 03:16:08;;;;;;;1.67;1.40;;;-1.40;99.90;;;;;;5031736;28;20032;-80
2024/01/11 03:18:34;;;;;;;2.22;1.33;;;-1.30;99.90;;;;;;5032111;28;20475;-80
2024/01/11 03:21:00;;;;;;;3.58;1.88;;;-1.20;99.90;;;;;;5023596;28;20033;-81
2024/01/11 03:23:26;;;;;;;2.10;1.25;;;-1.20;99.90;;;;;;5031163;28;20495;-79
2024/01/11 03:25:53;;;;;;;1.52;1.13;;;-1.10;99.90;;;;;;5022290;28;20053;-79
2024/01/11 03:28:19;;;;;;;1.20;1.00;;;-1.10;99.90;;;;;;5012348;28;20395;-79
2024/01/11 03:30:45;;;;;;;3.63;1.10;;;-1.00;99.90;;;;;;5014301;28;20394;-81
2024/01/11 03:33:10;;;;;;;2.10;1.20;;;-1.00;99.90;;;;;;5032372;28;20391;-80
2024/01/11 03:35:39;;;;;;;2.47;1.23;;;-0.90;99.90;;;;;;5015232;28;20117;-80
2024/01/11 03:38:05;;;;;;;1.02;0.93;;;-0.90;99.90;;;;;;5031392;28;20367;-81
2024/01/11 03:40:31;;;;;;;3.65;1.63;;;-0.80;99.90;;;;;;5015530;28;20022;-80
2024/01/11 03:42:57;;;;;;;3.30;1.63;;;-0.80;99.90;;;;;;5032529;28;20040;-80
2024/01/11 03:45:23;;;;;;;2.00;1.40;;;-0.70;99.90;;;;;;5032533;28;20029;-80
2024/01/11 03:47:49;;;;;;;1.73;1.27;;;-0.70;99.90;;;;;;5032735;28;20028;-80
2024/01/11 03:50:14;;;;;;;2.65;1.65;;;-0.60;99.90;;;;;;5014449;28;20017;-81
2024/01/11 03:52:42;;;;;;;1.25;0.88;;;-0.60;99.90;;;;;;5031933;28;20056;-80
2024/01/11 03:55:08;;;;;;;1.67;1.02;;;-0.50;99.90;;;;;;5031910;28;20068;-80
2024/01/11 03:57:35;;;;;;;1.92;1.10;;;-0.50;99.90;;;;;;5030375;28;20056;-80
2024/01/11 04:00:01;;;;;;;1.38;1.00;;;-0.50;99.90;;;;;;5015599;28;20501;-80
2024/01/11 04:02:26;;;;;;;1.55;0.95;;;-0.40;99.90;;;;;;5016059;28;20037;-80
2024/01/11 04:04:53;;;;;;;1.42;1.13;;;-0.40;99.90;;;;;;5018088;28;20029;-80
2024/01/11 04:07:19;;;;;;;3.20;1.30;;;-0.30;99.90;;;;;;5035658;28;20442;-81
2024/01/11 04:09:45;;;;;;;2.00;1.10;;;-0.30;99.90;;;;;;5035676;28;20033;-80
2024/01/11 04:12:11;;;;;;;1.77;0.88;;;-0.30;99.90;;;;;;5016186;28;20021;-80
2024/01/11 04:14:40;;;;;;;1.27;1.17;;;-0.20;99.90;;;;;;5017372;28;20033;-78
2024/01/11 04:17:06;;;;;;;1.15;0.90;;;-0.20;99.90;;;;;;5017574;28;20022;-82
2024/01/11 04:19:32;;;;;;;1.70;1.13;;;-0.20;99.90;;;;;;5018260;28;20060;-81
2024/01/11 04:21:58;;;;;;;1.83;0.82;;;-0.20;99.90;;;;;;5035657;28;20479;-80
2024/01/11 04:24:24;;;;;;;1.20;0.90;;;-0.10;99.90;;;;;;5036370;28;20021;-79
2024/01/11 04:26:50;;;;;;;1.50;1.10;;;-0.10;99.90;;;;;;5037204;28;20049;-80
2024/01/11 04:29:16;;;;;;;2.55;1.52;;;0.00;99.90;;;;;;5018099;28;20068;-80
2024/01/11 04:31:42;;;;;;;1.80;1.20;;;0.00;99.90;;;;;;5035399;28;20467;-81
2024/01/11 04:34:11;;;;;;;3.78;1.35;;;0.00;99.90;;;;;;5035631;28;20478;-80
2024/01/11 04:36:43;;;;;;;2.80;0.90;;;0.00;99.90;;;;;;5035354;28;20028;-81
2024/01/11 04:39:09;;;;;;;0.98;0.85;;;0.00;99.90;;;;;;5036433;28;20025;-81
2024/01/11 04:41:38;;;;;;;2.40;1.05;;;0.10;99.90;;;;;;5035932;28;20113;-79
2024/01/11 04:44:05;;;;;;;1.80;1.40;;;0.10;99.90;;;;;;5046871;28;20025;-80
2024/01/11 04:46:30;;;;;;;1.65;1.15;;;0.10;99.90;;;;;;5056629;28;20028;-80
2024/01/11 04:48:56;;;;;;;1.98;1.10;;;0.10;99.90;;;;;;5016822;28;20021;-80
2024/01/11 04:51:22;;;;;;;2.20;1.42;;;0.10;99.90;;;;;;5035609;28;20053;-81
2024/01/11 04:53:51;;;;;;;2.20;1.33;;;0.10;99.90;;;;;;5035377;28;20021;-82
2024/01/11 04:56:17;;;;;;;1.92;1.10;;;0.10;99.90;;;;;;5016969;28;20040;-79
2024/01/11 04:58:44;;;;;;;2.72;1.55;;;0.10;99.90;;;;;;5017344;28;20406;-82
2024/01/11 05:01:17;;;;;;;2.22;1.42;;;0.20;99.90;;;;;;5034493;28;20112;-79
2024/01/11 05:03:45;;;;;;;1.60;1.27;;;0.20;99.90;;;;;;5033176;28;20037;-80
2024/01/11 05:06:18;;;;;;;2.55;1.30;;;0.20;99.90;;;;;;5016940;28;20068;-81
2024/01/11 05:08:47;;;;;;;2.65;1.80;;;0.20;99.90;;;;;;5016835;28;20037;-81
2024/01/11 05:11:21;;;;;;;1.58;1.15;;;0.20;99.90;;;;;;5034975;28;20101;-82
2024/01/11 05:13:48;;;;;;;3.42;1.80;;;0.20;99.90;;;;;;5033577;28;20022;-80
2024/01/11 05:16:26;;;;;;;1.83;1.40;;;0.20;99.90;;;;;;5034987;28;20029;-80
2024/01/11 05:18:52;;;;;;;7.93;1.63;;;0.20;99.90;;;;;;5016782;28;20079;-82
2024/01/11 05:21:19;;;;;;;1.45;1.35;;;0.20;99.90;;;;;;5016158;28;20029;-81
2024/01/11 05:23:45;;;;;;;2.87;1.70;;;0.20;99.90;;;;;;5030156;28;20029;-81
2024/01/11 05:26:12;;;;;;;4.78;2.25;;;0.20;99.90;;;;;;5035735;28;20017;-81
2024/01/11 05:28:38;;;;;;;3.77;1.33;;;0.20;99.90;;;;;;5035542;28;20029;-81
2024/01/11 05:31:12;;;;;;;2.13;1.73;;;0.30;99.90;;;;;;5018733;28;20026;-81
2024/01/11 05:33:39;;;;;;;2.88;2.63;;;0.30;99.90;;;;;;5038684;28;20082;-80
2024/01/11 05:36:05;;;;;;;3.08;2.38;;;0.30;99.90;;;;;;5052084;28;20537;-80
2024/01/11 05:38:31;;;;;;;3.22;1.48;;;0.30;99.90;;;;;;5044606;28;20029;-80
2024/01/11 05:40:57;;;;;;;3.25;2.15;;;0.30;99.90;;;;;;5023880;28;20120;-80
2024/01/11 05:43:23;;;;;;;1.88;1.63;;;0.30;99.90;;;;;;5039565;28;20041;-80
2024/01/11 05:45:50;;;;;;;2.22;1.52;;;0.30;99.90;;;;;;5035260;28;20101;-80
2024/01/11 05:48:17;;;;;;;2.97;1.77;;;0.30;99.90;;;;;;5034296;28;20026;-80
2024/01/11 05:50:43;;;;;;;2.63;2.03;;;0.30;99.90;;;;;;5033009;28;20124;-80
2024/01/11 05:53:10;;;;;;;3.47;1.80;;;0.30;99.90;;;;;;5033733;28;20052;-79
2024/01/11 05:55:36;;;;;;;5.72;2.15;;;0.30;99.90;;;;;;5015396;28;20056;-80
2024/01/11 05:58:02;;;;;;;6.72;1.92;;;0.30;99.90;;;;;;5033232;28;20432;-82
2024/01/11 06:00:27;;;;;;;6.30;2.65;;;0.30;99.90;;;;;;5033514;28;20022;-82
2024/01/11 06:02:53;;;;;;;4.00;2.20;;;0.30;99.90;;;;;;5033258;28;20073;-81
2024/01/11 06:05:19;;;;;;;4.85;1.90;;;0.30;99.90;;;;;;5032729;28;20031;-82
2024/01/11 06:07:45;;;;;;;2.60;1.52;;;0.30;99.90;;;;;;5031324;28;20415;-80
2024/01/11 06:10:12;;;;;;;4.22;1.80;;;0.30;99.90;;;;;;5016510;28;20071;-79
2024/01/11 06:12:39;;;;;;;6.38;2.25;;;0.30;99.90;;;;;;5031114;28;20025;-80
2024/01/11 06:15:05;;;;;;;7.22;1.80;;;0.30;99.90;;;;;;5035943;28;20382;-81
2024/01/11 06:17:32;;;;;;;4.93;2.22;;;0.30;99.90;;;;;;5039263;28;20468;-82
2024/01/11 06:19:57;;;;;;;3.47;2.10;;;0.30;99.90;;;;;;5016038;28;20153;-83
2024/01/11 06:22:23;;;;;;;4.82;2.08;;;0.30;99.90;;;;;;5015415;28;20480;-84
2024/01/11 06:24:49;;;;;;;4.03;1.98;;;0.30;99.90;;;;;;5035102;28;20030;-85
2024/01/11 06:27:15;;;;;;;1.60;0.98;;;0.30;99.90;;;;;;5037045;28;20351;-83
2024/01/11 06:29:41;;;;;;;2.95;1.88;;;0.40;99.90;;;;;;5034173;28;20021;-82
2024/01/11 06:32:08;;;;;;;5.43;2.35;;;0.30;99.90;;;;;;5040573;28;20032;-82
2024/01/11 06:34:36;;;;;;;2.70;2.22;;;0.30;99.90;;;;;;5033115;28;20364;-83
2024/01/11 06:37:03;;;;;;;2.58;1.60;;;0.30;99.90;;;;;;5014895;28;20037;-82
2024/01/11 06:39:30;;;;;;;7.22;1.63;;;0.40;99.90;;;;;;5032794;28;20501;-82
2024/01/11 06:41:56;;;;;;;3.55;1.80;;;0.30;99.90;;;;;;5032696;28;20036;-82
2024/01/11 06:44:22;;;;;;;3.75;1.80;;;0.40;99.90;;;;;;5033193;28;20026;-83
2024/01/11 06:46:47;;;;;;;5.30;1.70;;;0.40;99.90;;;;;;5015254;28;20756;-81
2024/01/11 06:49:14;;;;;;;14.35;2.47;;;0.40;99.90;;;;;;5015594;28;20116;-83
2024/01/11 06:51:39;;;;;;;1.40;1.15;;;0.40;99.90;;;;;;5034179;28;20167;-82
2024/01/11 06:54:06;;;;;;;5.00;2.22;;;0.40;99.90;;;;;;5046884;28;20037;-83
2024/01/11 06:56:32;;;;;;;3.05;1.27;;;0.40;99.90;;;;;;5032688;28;20029;-84
2024/01/11 06:58:58;;;;;;;2.63;1.30;;;0.40;99.90;;;;;;5034176;28;20025;-84
2024/01/11 07:01:24;;;;;;;3.20;1.80;;;0.40;99.90;;;;;;5033973;28;20017;-83
2024/01/11 07:03:51;;;;;;;4.78;2.83;;;0.40;99.90;;;;;;5018111;28;20032;-83
2024/01/11 07:06:17;;;;;;;;;;;0.40;99.90;;;;;;5022579;28;20032;-84
2024/01/11 07:08:43;;;;;;;8.02;2.63;;;0.40;99.90;;;;;;5023643;28;20390;-83
2024/01/11 07:11:11;;;;;;;8.20;3.70;;;0.40;99.90;;;;;;5019975;28;20073;-86
2024/01/11 07:13:36;;;;;;;6.07;3.15;;;0.40;99.90;;;;;;5002157;28;20073;-87
2024/01/11 07:16:04;;;;;;;9.77;2.75;;;0.40;99.90;;;;;;5000938;28;20026;-84
2024/01/11 07:18:30;;;;;;;4.45;2.25;;;0.40;99.90;;;;;;4990078;28;20411;-85
2024/01/11 07:20:59;;;;;;;4.30;2.33;;;0.40;99.90;;;;;;5010956;28;20033;-85
2024/01/11 07:23:25;;;;;;;2.85;2.05;;;0.40;99.90;;;;;;4999969;28;20050;-84
2024/01/11 07:25:51;;;;;;;5.00;2.00;;;0.40;99.90;;;;;;5003433;28;20086;-84
2024/01/11 07:28:17;;;;;;;5.45;1.98;;;0.40;99.90;;;;;;5002493;28;20022;-85
2024/01/11 07:30:43;;;;;;;4.45;2.38;;;0.40;99.90;;;;;;5007727;28;20026;-84
2024/01/11 07:33:10;;;;;;;4.85;2.28;;;0.40;99.90;;;;;;4986295;28;20065;-85
2024/01/11 07:35:36;;;;;;;6.93;2.30;;;0.40;99.90;;;;;;4988998;28;20460;-84
2024/01/11 07:38:02;;;;;;;1.65;1.20;;;0.40;99.90;;;;;;5008619;28;20408;-85
2024/01/11 07:40:28;;;;;;;2.78;1.92;;;0.40;99.90;;;;;;4983057;28;20046;-86
2024/01/11 07:42:54;;;;;;;4.13;1.83;;;0.40;99.90;;;;;;5000543;28;20097;-85
2024/01/11 07:45:22;;;;;;;4.38;2.08;;;0.40;99.90;;;;;;5008828;28;20026;-82
2024/01/11 07:47:48;;;;;;;;;;;0.40;99.90;;;;;;5005263;28;20041;-84
2024/01/11 07:50:13;;;;;;;3.55;1.30;;;0.40;99.90;;;;;;5036433;28;19916;-82
2024/01/11 07:52:43;;;;;;;11.18;1.95;;;0.40;99.90;;;;;;5044554;28;20036;-83
2024/01/11 07:55:11;;;;;;;4.15;1.30;;;0.40;99.90;;;;;;5024570;28;20029;-83
2024/01/11 07:57:37;;;;;;;3.72;1.23;;;0.40;99.90;;;;;;5036620;28;20030;-82
2024/01/11 08:00:06;;;;;;;2.90;1.47;;;0.40;99.90;;;;;;5036515;28;20022;-83
2024/01/11 08:02:33;;;;;;;3.60;1.95;;;0.40;99.90;;;;;;5020861;28;20326;-82
2024/01/11 08:04:59;;;;;;;6.18;1.63;;;0.50;99.90;;;;;;5036992;28;20386;-83
2024/01/11 08:07:26;;;;;;;4.43;2.13;;;0.50;99.90;;;;;;5036171;28;20100;-83
2024/01/11 08:09:52;;;;;;;5.50;2.13;;;0.40;99.90;;;;;;5036687;28;20513;-83
2024/01/11 08:12:18;;;;;;;10.60;1.88;;;0.40;99.90;;;;;;5035942;28;20116;-82
2024/01/11 08:14:46;;;;;;;8.98;3.25;;;0.50;99.90;;;;;;5029666;28;20026;-85
2024/01/11 08:17:13;;;;;;;14.65;3.53;;;0.50;99.90;;;;;;5036283;28;20025;-81
2024/01/11 08:19:39;;;;;;;7.13;1.73;;;0.50;99.90;;;;;;5017711;28;20075;-83
2024/01/11 08:22:06;;;;;;;4.50;1.65;;;0.50;99.90;;;;;;5035617;28;20485;-82
2024/01/11 08:24:34;;;;;;;4.25;1.90;;;0.50;99.90;;;;;;5035602;28;20545;-83
2024/01/11 08:27:00;;;;;;;5.90;2.08;;;0.40;99.90;;;;;;5036660;28;20491;-84
2024/01/11 08:29:26;;;;;;;14.98;2.78;;;0.40;99.90;;;;;;5036243;28;20070;-84
2024/01/11 08:31:52;;;;;;;5.32;1.67;;;0.40;99.90;;;;;;5035154;28;20403;-84
2024/01/11 08:34:18;;;;;;;7.38;2.35;;;0.40;99.90;;;;;;5035221;28;20033;-85
2024/01/11 08:36:44;;;;;;;3.40;1.90;;;0.50;99.90;;;;;;5035208;28;20072;-84
2024/01/11 08:39:11;;;;;;;3.38;2.08;;;0.40;99.90;;;;;;5017952;28;20033;-83
2024/01/11 08:41:40;;;;;;;4.53;2.25;;;0.40;99.90;;;;;;5034764;28;20029;-84
2024/01/11 08:44:06;;;;;;;3.10;1.23;;;0.40;99.90;;;;;;5017432;28;20046;-84
2024/01/11 08:46:35;;;;;;;3.72;2.17;;;0.40;99.90;;;;;;5035345;28;20051;-85
2024/01/11 08:49:03;;;;;;;3.72;1.75;;;0.40;99.90;;;;;;5034741;28;20502;-84
2024/01/11 08:51:32;;;;;;;3.85;1.85;;;0.40;99.90;;;;;;5035025;28;20053;-82
2024/01/11 08:53:58;;;;;;;3.85;2.63;;;0.40;99.90;;;;;;5035138;28;20031;-84
2024/01/11 08:56:25;;;;;;;7.28;3.78;;;0.40;99.90;;;;;;5034970;28;20057;-82
2024/01/11 08:58:51;;;;;;;1.88;1.08;;;0.40;99.90;;;;;;5051652;28;20091;-82
2024/01/11 09:01:17;;;;;;;2.30;1.30;;;0.40;99.90;;;;;;5028243;28;20025;-83
2024/01/11 09:03:44;;;;;;;12.27;1.88;;;0.40;99.90;;;;;;5036872;28;20092;-82
2024/01/11 09:06:13;;;;;;;0.75;0.70;;;0.40;99.90;;;;;;5031790;28;20033;-83
2024/01/11 09:08:41;;;;;;;5.03;1.35;;;0.30;99.90;;;;;;5044052;28;20026;-83
2024/01/11 09:11:06;;;;;;;2.22;1.17;;;0.30;99.90;;;;;;5037656;28;20025;-83
2024/01/11 09:13:32;;;;;;;1.83;1.00;;;0.30;99.90;;;;;;5030515;28;20030;-84
2024/01/11 09:15:58;;;;;;;3.13;0.90;;;0.20;99.90;;;;;;5043794;28;20028;-83
2024/01/11 09:18:24;;;;;;;0.98;0.80;;;0.20;99.90;;;;;;5017265;28;20018;-86
2024/01/11 09:20:50;;;;;;;2.40;1.42;;;0.20;99.90;;;;;;5018058;28;20022;-85
2024/01/11 09:23:17;;;;;;;8.27;1.92;;;0.20;99.90;;;;;;5034953;28;20112;-85
2024/01/11 09:25:43;;;;;;;2.50;1.40;;;0.20;99.90;;;;;;5034698;28;20017;-85
2024/01/11 09:28:09;;;;;;;3.20;1.30;;;0.10;99.90;;;;;;5034539;28;20437;-84
2024/01/11 09:30:35;;;;;;;5.63;1.30;;;0.10;99.90;;;;;;5034711;28;20164;-86
2024/01/11 09:33:01;;;;;;;3.78;1.85;;;0.10;99.90;;;;;;5034903;28;20128;-84
2024/01/11 09:35:27;;;;;;;3.00;1.77;;;0.20;99.90;;;;;;5042865;28;20032;-88
2024/01/11 09:37:53;;;;;;;3.85;2.60;;;0.10;99.90;;;;;;5036769;28;20040;-86
2024/01/11 09:40:19;;;;;;;4.07;1.90;;;0.10;99.90;;;;;;5017468;28;20025;-85
2024/01/11 09:42:45;;;;;;;4.47;1.83;;;0.10;99.90;;;;;;5019373;28;20125;-85
2024/01/11 09:45:16;;;;;;;4.82;1.80;;;0.10;99.90;;;;;;5040951;28;20057;-85
2024/01/11 09:47:46;;;;;;;3.97;2.08;;;0.10;99.90;;;;;;5039892;28;20028;-86
2024/01/11 09:50:17;;;;;;;3.45;1.88;;;0.10;99.90;;;;;;5040980;28;20055;-83
2024/01/11 09:52:50;;;;;;;3.65;2.13;;;0.10;99.90;;;;;;5059758;28;20036;-85
2024/01/11 09:55:17;;;;;;;2.33;1.55;;;0.10;99.90;;;;;;5041749;28;20021;-85
2024/01/11 09:57:47;;;;;;;2.80;1.58;;;0.10;99.90;;;;;;5018742;28;20080;-84
2024/01/11 10:00:23;;;;;;;3.17;1.40;;;0.10;99.90;;;;;;5037636;28;20025;-84
2024/01/11 10:02:49;;;;;;;2.55;1.42;;;0.10;99.90;;;;;;5020864;28;20033;-87
2024/01/11 10:05:18;;;;;;;12.73;6.72;;;0.10;99.90;;;;;;5041497;28;20360;-84
2024/01/11 10:07:45;;;;;;;5.90;4.20;;;0.00;99.70;;;;;;5050460;28;20032;-85
2024/01/11 10:10:15;;;;;;;8.95;2.95;;;0.00;99.10;;;;;;5029311;28;20567;-85
2024/01/11 10:12:41;;;;;;;3.17;1.48;;;0.00;98.90;;;;;;5043063;28;20032;-85
2024/01/11 10:15:09;;;;;;;5.70;2.88;;;-0.10;98.40;;;;;;5048278;28;20022;-84
2024/01/11 10:17:46;;;;;;;3.90;2.47;;;-0.10;98.20;;;;;;5046268;28;20078;-85
2024/01/11 10:20:16;;;;;;;3.63;1.95;;;-0.10;98.00;;;;;;5030715;28;20021;-85
2024/01/11 10:22:46;;;;;;;4.65;2.08;;;-0.10;98.10;;;;;;5039458;28;20044;-86
2024/01/11 10:25:14;;;;;;;4.85;2.10;;;-0.20;98.10;;;;;;5024059;28;20462;-86
2024/01/11 10:27:44;;;;;;;4.22;1.38;;;-0.20;97.00;;;;;;5042039;28;20075;-87
2024/01/11 10:30:16;;;;;;;1.65;1.08;;;-0.20;95.00;;;;;;5048116;28;20045;-87
2024/01/11 10:32:43;;;;;;;2.53;1.48;;;-0.40;95.60;;;;;;5017307;28;20021;-87
2024/01/11 10:35:09;;;;;;;1.70;1.25;;;-0.50;93.50;;;;;;5030519;28;20522;-87
2024/01/11 10:37:38;;;;;;;3.07;1.83;;;-0.50;94.00;;;;;;5016656;28;20061;-86
2024/01/11 10:40:15;;;;;;;2.55;2.20;;;-0.50;94.20;;;;;;5034778;28;20482;-85
2024/01/11 10:42:51;;;;;;;2.83;1.30;;;-0.70;92.70;;;;;;5038101;28;20037;-86
2024/01/11 10:45:19;;;;;;;3.43;1.27;;;-0.80;93.30;;;;;;5052932;28;20032;-88
2024/01/11 10:48:04;;;;;;;2.03;1.40;;;-0.80;93.70;;;;;;5017951;28;20337;-85
2024/01/11 10:50:41;;;;;;;3.30;1.83;;;-0.80;94.00;;;;;;5039452;28;20414;-87
2024/01/11 10:53:36;;;;;;;4.38;2.53;;;-0.80;94.20;;;;;;5051354;28;20114;-88
2024/01/11 10:56:04;;;;;;;3.97;2.33;;;-0.90;93.90;;;;;;5016651;28;20069;-87
2024/01/11 10:58:31;;;;;;;5.90;3.90;;;-1.10;94.00;;;;;;5034025;28;20025;-85
2024/01/11 11:00:59;;;;;;;2.80;1.87;;;-1.20;93.90;;;;;;5017065;28;20454;-86
2024/01/11 11:03:26;;;;;;;8.38;1.75;;;-1.40;94.00;;;;;;5034100;28;20033;-86
2024/01/11 11:05:57;;;;;;;2.83;1.83;;;-1.50;94.40;;;;;;5034608;28;20021;-84
2024/01/11 11:08:25;;;;;;;6.90;2.75;;;-1.50;94.50;;;;;;5034393;28;20502;-86
2024/01/11 11:11:03;;;;;;;9.27;4.18;;;-1.60;93.30;;;;;;5026289;28;20019;-85
2024/01/11 11:13:29;;;;;;;6.70;3.58;;;-1.90;93.40;;;;;;5041632;28;20017;-86
2024/01/11 11:15:57;;;;;;;2.65;2.10;;;-2.10;93.40;;;;;;5033351;28;20052;-86
2024/01/11 11:18:24;;;;;;;8.10;3.50;;;-2.20;92.80;;;;;;5033285;28;20067;-88
2024/01/11 11:20:50;;;;;;;6.67;3.07;;;-2.40;92.40;;;;;;5034796;28;20022;-86
2024/01/11 11:23:18;;;;;;;10.17;2.03;;;-2.70;92.00;;;;;;5033576;28;20297;-87
2024/01/11 11:25:47;;;;;;;;;;;-3.00;91.90;;;;;;5043741;28;20623;-88
2024/01/11 11:28:15;;;;;;;5.28;3.70;;;-3.20;91.40;;;;;;5037461;28;20370;-86
2024/01/11 11:30:42;;;;;;;2.30;1.60;;;-3.60;91.40;;;;;;5043718;28;20029;-87
2024/01/11 11:33:25;;;;;;;4.20;1.33;;;-3.80;91.40;;;;;;5038676;28;20040;-87
2024/01/11 11:35:57;;;;;;;3.08;1.70;;;-4.10;92.00;;;;;;5022183;28;20022;-88
2024/01/11 11:38:25;;;;;;;2.92;1.48;;;-4.30;92.10;;;;;;5038474;28;20018;-88
2024/01/11 11:40:53;;;;;;;4.28;1.63;;;-4.40;92.50;;;;;;5017750;28;20084;-88
2024/01/11 11:43:20;;;;;;;3.10;1.13;;;-4.50;92.70;;;;;;5033656;28;20045;-85
2024/01/11 11:45:48;;;;;;;2.03;1.17;;;-4.50;92.80;;;;;;5033893;28;20116;-86
2024/01/11 11:48:36;;;;;;;4.47;1.35;;;-4.70;92.10;;;;;;5033703;28;20029;-88
2024/01/11 11:51:10;;;;;;;2.28;2.08;;;-4.80;92.60;;;;;;5042549;28;20044;-88
2024/01/11 11:53:41;;;;;;;1.58;1.30;;;-4.80;93.70;;;;;;5022991;28;20113;-86
2024/01/11 11:56:12;;;;;;;2.63;1.48;;;-4.90;93.70;;;;;;5036968;28;20033;-88
2024/01/11 11:58:39;;;;;;;6.68;1.88;;;-5.00;93.60;;;;;;5035457;28;20025;-88
2024/01/11 12:01:05;;;;;;;5.13;1.80;;;-5.00;94.00;;;;;;5020420;28;20022;-89
2024/01/11 12:03:32;;;;;;;2.38;1.60;;;-5.10;94.30;;;;;;5025409;28;20068;-88
2024/01/11 12:05:59;;;;;;;5.70;2.00;;;-5.20;94.30;;;;;;5042819;28;20036;-87
2024/01/11 12:08:25;;;;;;;1.92;1.63;;;-5.20;94.30;;;;;;5044059;28;20026;-90
2024/01/11 12:10:52;;;;;;;3.78;2.25;;;-5.20;94.30;;;;;;5019577;28;20112;-87
2024/01/11 12:13:18;;;;;;;2.75;1.55;;;-5.30;94.30;;;;;;5041929;28;20041;-87
2024/01/11 12:15:44;;;;;;;2.05;1.50;;;-5.30;94.30;;;;;;5017611;28;20046;-86
2024/01/11 12:18:10;;;;;;;2.63;1.42;;;-5.30;94.30;;;;;;5051711;28;20021;-88
2024/01/11 12:20:36;;;;;;;3.13;1.70;;;-5.30;94.60;;;;;;5036236;28;20152;-86
2024/01/11 12:23:03;;;;;;;3.95;1.83;;;-5.30;94.80;;;;;;5025044;28;20041;-86
2024/01/11 12:25:29;;;;;;;2.83;1.70;;;-5.30;94.50;;;;;;5049157;28;20048;-85
2024/01/11 12:27:56;;;;;;;5.80;2.92;;;-5.30;94.60;;;;;;5022718;28;20033;-87
2024/01/11 12:30:26;;;;;;;6.17;2.20;;;-5.40;94.20;;;;;;5022702;28;20534;-88
2024/01/11 12:32:54;;;;;;;2.85;2.03;;;-5.50;94.20;;;;;;5038750;28;20052;-85
2024/01/11 12:35:20;;;;;;;4.93;2.42;;;-5.60;94.50;;;;;;5058038;28;20024;-85
2024/01/11 12:38:00;;;;;;;4.60;3.03;;;-5.60;94.90;;;;;;5054654;28;20039;-86
2024/01/11 12:40:30;;;;;;;4.07;1.55;;;-5.60;94.20;;;;;;5030299;28;20108;-87
2024/01/11 12:42:58;;;;;;;2.17;1.92;;;-5.80;94.50;;;;;;5040269;28;20387;-86
2024/01/11 12:45:29;;;;;;;2.08;1.88;;;-5.90;94.70;;;;;;5037907;28;20063;-88
2024/01/11 12:47:56;;;;;;;2.50;1.75;;;-6.00;95.30;;;;;;5036355;28;20132;-87
2024/01/11 12:50:23;;;;;;;2.45;2.25;;;-6.00;95.70;;;;;;5019226;28;20029;-87
2024/01/11 12:53:17;;;;;;;3.15;2.67;;;-6.00;96.10;;;;;;5037305;28;20502;-87